Yerevan, Armenia

5:59 PM AMT on July 22, 2014 (GMT +0400)
Zvartnots (UDYZ) Elev 2838 ft | 40.15 °N, 44.40 °E | Change Station

Current weather conditions updated 29 minutes ago

Scattered Clouds
Scattered Clouds
90 °F
Feels Like 90 °F
N
4
Wind Variable Wind from East

Tomorrow is forecast to be Warmer than today.

Today
High -- | Low -- °F
--% Chance of Precip.
Yesterday
High -- | Low -- °F
Precip. -- in
5:50 AM 8:25 PM
Waning Crescent, 17% visible
Pressure 29.77 in
Visibility 6.2 miles
Clouds Few 4000 ft
Scattered Clouds 10000 ft
Dew Point 50 °F
Humidity 26%
Rainfall 0.00 in
Snow Depth Not available.
UV 3 out of 12
Pollen Not available.
Air Quality Not available.
Flu Activity Not available.
METAR UDYZ 221330Z 08002MPS 050V140 9999 FEW040CB SCT100 32/10 Q1008 R09/000070 NOSIG

More Conditions Fewer Conditions

Pressure 29.77 in
Visibility 6.2 miles
Clouds Few 4000 ft
Scattered Clouds 10000 ft
Dew Point 50 °F
Humidity 26%
Rainfall 0.00 in
Snow Depth Not available.
UV 3 out of 12
Pollen Not available.
Air Quality Not available.
Flu Activity Not available.
METAR UDYZ 221330Z 08002MPS 050V140 9999 FEW040CB SCT100 32/10 Q1008 R09/000070 NOSIG

More Conditions Fewer Conditions

10-Day Weather Forecast

LIGHTNING

Thunderstorms are forecast for your area. Cloud conditions might be right for producing strikes in the next few days, though lightning itself cannot be forecasted.

Lightning is a visible electrical discharge produced by a thunderstorm, based on the build up of oppositely charged particles within a cloud and from cloud to ground.

Know how to stay safe in a lightning storm.

Check out these Lightning WunderPhotos!

Almanac

Astronomy

Jul. 22, 2014 Rise Set
Actual Time 5:50 AM AMT 8:25 PM AMT
Civil Twilight 5:19 AM AMT 8:57 PM AMT
Nautical Twilight 4:40 AM AMT 9:35 PM AMT
Astronomical Twilight 3:56 AM AMT 10:19 PM AMT
Moon 2:07 AM AMT 4:43 PM AMT
Length of Visible Light 15h 37m
Length of Day
14h 34m
Tomorrow will be 1m 40s shorter.
Waning Crescent, 17% of the Moon is Illuminated
Today
Waning Crescent
Jul 26
New
Aug 3
First Quarter
Aug 10
Full
Aug 17
Last Quarter

Yesterday's Extremes

Country Highs Country Lows

Community

WunderPhotos

Upload Photos

1,736,229 photos uploaded!

Nearby

Snow Depth

Not available.

Earthquake Activity

City Distance Mag. Time & Date
No recent earthquake activity has been reported nearby.
Minimum magnitude displayed is 2.5.

Coastal Water Temperatures

Place Temperature
No Stations Reporting

Nearby Weather Stations

There are no personal weather stations in this area.